createdAt,value
2018-03-26T00:01:41.623Z,1.80
2018-03-26T00:04:10.537Z,2.10
2018-03-26T00:06:38.771Z,2.00
2018-03-26T00:09:07.675Z,2.20
2018-03-26T00:11:35.812Z,2.20
2018-03-26T00:14:04.020Z,2.20
2018-03-26T00:16:32.231Z,2.30
2018-03-26T00:19:00.464Z,2.30
2018-03-26T00:21:28.754Z,2.20
2018-03-26T00:23:57.682Z,2.20
2018-03-26T00:26:25.816Z,2.20
2018-03-26T00:28:54.737Z,2.20
2018-03-26T00:31:22.898Z,2.20
2018-03-26T00:33:51.034Z,2.20
2018-03-26T00:36:19.179Z,2.20
2018-03-26T00:38:47.311Z,2.20
2018-03-26T00:41:15.554Z,2.10
2018-03-26T00:43:44.461Z,1.30
2018-03-26T00:46:13.383Z,1.60
2018-03-26T00:48:41.503Z,1.60
2018-03-26T00:51:09.648Z,1.70
2018-03-26T00:53:43.678Z,1.70
2018-03-26T00:56:11.860Z,1.80
2018-03-26T00:58:40.009Z,1.90
2018-03-26T01:01:08.150Z,1.90
2018-03-26T01:03:36.289Z,1.80
2018-03-26T01:06:05.198Z,1.90
2018-03-26T01:08:33.336Z,1.90
2018-03-26T01:11:01.499Z,1.90
2018-03-26T01:13:29.632Z,1.90
2018-03-26T01:15:57.767Z,1.70
2018-03-26T01:18:26.711Z,1.50
2018-03-26T01:20:55.841Z,1.50
2018-03-26T01:23:24.797Z,1.40
2018-03-26T01:25:52.930Z,1.40
2018-03-26T01:28:21.090Z,1.50
2018-03-26T01:30:49.226Z,1.50
2018-03-26T01:33:17.374Z,1.40
2018-03-26T01:35:45.499Z,0.50
2018-03-26T01:38:13.688Z,0.70
2018-03-26T01:40:42.574Z,0.10
2018-03-26T01:43:10.754Z,0.10
2018-03-26T01:45:38.894Z,0.40
2018-03-26T01:48:07.075Z,0.60
2018-03-26T01:50:35.211Z,0.40
2018-03-26T01:53:04.139Z,0.70
2018-03-26T01:55:33.112Z,0.50
2018-03-26T01:58:01.259Z,0.50
2018-03-26T02:00:29.410Z,1.00
2018-03-26T02:02:57.583Z,1.30
2018-03-26T02:05:25.759Z,1.50
2018-03-26T02:07:54.286Z,1.70
2018-03-26T02:10:22.423Z,1.80
2018-03-26T02:12:50.626Z,1.90
2018-03-26T02:15:18.787Z,2.00
2018-03-26T02:17:46.927Z,2.10
2018-03-26T02:20:15.094Z,2.10
2018-03-26T02:22:43.234Z,2.10
2018-03-26T02:25:12.143Z,2.20
2018-03-26T02:27:40.273Z,2.20
2018-03-26T02:30:08.416Z,2.30
2018-03-26T02:32:37.351Z,2.30
2018-03-26T02:35:06.246Z,2.40
2018-03-26T02:37:35.182Z,2.40
2018-03-26T02:40:03.366Z,2.30
2018-03-26T02:42:31.506Z,2.40
2018-03-26T02:44:59.654Z,2.50
2018-03-26T02:47:27.799Z,2.50
2018-03-26T02:49:55.999Z,2.50
2018-03-26T02:52:24.129Z,2.20
2018-03-26T02:54:53.042Z,2.00
2018-03-26T02:57:21.186Z,2.00
2018-03-26T02:59:49.331Z,2.20
2018-03-26T03:02:17.542Z,2.10
2018-03-26T03:04:45.711Z,2.30
2018-03-26T03:07:13.839Z,2.00
2018-03-26T03:09:42.733Z,2.20
2018-03-26T03:12:10.873Z,2.20
2018-03-26T03:14:39.011Z,2.30
2018-03-26T03:17:07.179Z,2.30
2018-03-26T03:19:35.342Z,2.40
2018-03-26T03:22:03.556Z,2.50
2018-03-26T03:24:31.686Z,2.60
2018-03-26T03:27:00.613Z,2.60
2018-03-26T03:29:28.751Z,2.60
2018-03-26T03:31:56.910Z,2.40
2018-03-26T03:34:25.042Z,2.20
2018-03-26T03:36:54.075Z,1.90
2018-03-26T03:39:22.210Z,1.90
2018-03-26T03:41:50.370Z,1.80
2018-03-26T03:44:18.493Z,2.10
2018-03-26T03:46:46.633Z,1.90
2018-03-26T03:49:14.799Z,1.80
2018-03-26T03:51:42.957Z,1.90
2018-03-26T03:54:11.103Z,2.00
2018-03-26T03:56:39.258Z,2.20
2018-03-26T03:59:07.387Z,1.90
2018-03-26T04:01:35.557Z,1.80
2018-03-26T04:04:03.728Z,1.50
2018-03-26T04:06:32.627Z,1.50
2018-03-26T04:09:00.774Z,1.50
2018-03-26T04:11:29.680Z,1.70
2018-03-26T04:13:58.588Z,1.40
2018-03-26T04:16:26.798Z,1.30
2018-03-26T04:18:54.954Z,1.40
2018-03-26T04:21:23.089Z,1.90
2018-03-26T04:23:51.225Z,2.20
2018-03-26T04:26:19.346Z,2.20
2018-03-26T04:28:47.491Z,1.60
2018-03-26T04:31:16.387Z,2.20
2018-03-26T04:33:45.301Z,2.10
2018-03-26T04:36:13.425Z,2.00
2018-03-26T04:38:42.338Z,1.80
2018-03-26T04:41:10.474Z,1.80
2018-03-26T04:43:38.628Z,2.00
2018-03-26T04:46:06.755Z,1.70
2018-03-26T04:48:34.916Z,1.70
2018-03-26T04:51:03.187Z,2.00
2018-03-26T04:53:32.099Z,2.10
2018-03-26T04:56:00.264Z,2.10
2018-03-26T04:58:29.154Z,2.40
2018-03-26T05:00:57.334Z,2.40
2018-03-26T05:03:38.134Z,2.50
2018-03-26T05:06:06.281Z,2.40
2018-03-26T05:08:34.426Z,2.00
2018-03-26T05:11:03.331Z,2.50
2018-03-26T05:13:31.470Z,2.40
2018-03-26T05:16:00.382Z,2.50
2018-03-26T05:18:28.508Z,2.50
2018-03-26T05:20:56.658Z,2.60
2018-03-26T05:23:24.855Z,2.60
2018-03-26T05:25:53.018Z,2.10
2018-03-26T05:28:21.151Z,2.20
2018-03-26T05:30:50.210Z,1.90
2018-03-26T05:33:18.333Z,1.90
2018-03-26T05:35:46.536Z,1.90
2018-03-26T05:38:14.658Z,2.00
2018-03-26T05:40:42.812Z,2.00
2018-03-26T05:43:11.698Z,2.40
2018-03-26T05:45:40.610Z,2.60
2018-03-26T05:48:08.738Z,2.50
2018-03-26T05:50:36.894Z,2.30
2018-03-26T05:53:05.026Z,2.60
2018-03-26T05:55:33.170Z,2.70
2018-03-26T05:58:02.064Z,2.70
2018-03-26T06:00:30.978Z,2.90
2018-03-26T06:02:59.139Z,2.90
2018-03-26T06:05:27.284Z,2.90
2018-03-26T06:07:56.200Z,2.70
2018-03-26T06:10:25.119Z,3.00
2018-03-26T06:12:53.283Z,3.00
2018-03-26T06:15:21.422Z,3.10
2018-03-26T06:17:50.334Z,3.10
2018-03-26T06:20:18.485Z,3.00
2018-03-26T06:22:46.640Z,2.90
2018-03-26T06:25:14.783Z,2.90
2018-03-26T06:27:43.698Z,2.90
2018-03-26T06:30:12.602Z,2.80
2018-03-26T06:32:40.850Z,2.80
2018-03-26T06:35:08.954Z,2.80
2018-03-26T06:51:04.524Z,3.10
2018-03-26T06:53:32.666Z,3.20
2018-03-26T06:56:00.974Z,3.20
2018-03-26T06:58:29.122Z,3.30
2018-03-26T07:00:57.244Z,3.40
2018-03-26T07:03:25.387Z,3.30
2018-03-26T07:05:54.096Z,3.40
2018-03-26T07:08:22.241Z,3.40
2018-03-26T07:10:50.726Z,3.30
2018-03-26T07:13:18.883Z,3.30
2018-03-26T07:15:47.023Z,3.30
2018-03-26T07:18:15.169Z,3.30
2018-03-26T07:20:43.315Z,3.40
2018-03-26T07:23:12.322Z,3.20
2018-03-26T07:25:40.470Z,3.10
2018-03-26T07:28:09.402Z,2.80
2018-03-26T07:30:37.603Z,2.80
2018-03-26T07:33:05.729Z,2.90
2018-03-26T07:35:33.874Z,2.90
2018-03-26T07:38:02.014Z,3.00
2018-03-26T07:40:30.163Z,2.90
2018-03-26T07:42:58.291Z,2.60
2018-03-26T07:45:26.440Z,2.80
2018-03-26T07:47:54.567Z,2.80
2018-03-26T07:50:22.715Z,2.90
2018-03-26T07:52:52.376Z,2.60
2018-03-26T07:55:20.552Z,2.60
2018-03-26T07:57:48.677Z,2.90
2018-03-26T08:00:16.827Z,2.60
2018-03-26T08:02:45.750Z,2.90
2018-03-26T08:05:13.910Z,2.90
2018-03-26T08:07:42.060Z,2.90
2018-03-26T08:10:10.277Z,2.70
2018-03-26T08:12:38.430Z,2.70
2018-03-26T08:15:07.426Z,2.80
2018-03-26T08:17:35.565Z,2.70
2018-03-26T08:20:04.482Z,3.00
2018-03-26T08:22:32.631Z,3.00
2018-03-26T08:25:01.557Z,3.30
2018-03-26T08:27:29.704Z,3.30
2018-03-26T08:29:58.671Z,3.40
2018-03-26T08:32:26.795Z,3.40
2018-03-26T08:34:54.938Z,3.70
2018-03-26T08:37:23.088Z,4.00
2018-03-26T08:39:51.538Z,4.20
2018-03-26T08:42:19.753Z,4.30
2018-03-26T08:44:47.834Z,4.40
2018-03-26T08:47:15.988Z,4.40
2018-03-26T08:49:44.190Z,4.40
2018-03-26T08:52:12.339Z,4.00
2018-03-26T08:54:40.656Z,4.00
2018-03-26T08:57:09.944Z,4.20
2018-03-26T08:59:38.228Z,4.10
2018-03-26T09:02:06.491Z,4.00
2018-03-26T09:04:34.763Z,4.00
2018-03-26T09:07:02.919Z,3.80
2018-03-26T09:09:31.064Z,3.80
2018-03-26T09:12:00.018Z,4.10
2018-03-26T09:14:28.150Z,4.00
2018-03-26T09:16:56.307Z,4.20
2018-03-26T09:19:25.203Z,4.10
2018-03-26T09:21:53.359Z,4.10
2018-03-26T09:24:21.487Z,4.20
2018-03-26T09:26:49.718Z,4.20
2018-03-26T09:29:17.920Z,4.20
2018-03-26T09:31:46.065Z,4.20
2018-03-26T09:34:14.215Z,4.20
2018-03-26T09:36:42.342Z,4.40
2018-03-26T09:39:10.492Z,4.60
2018-03-26T09:41:38.620Z,4.70
2018-03-26T09:44:06.779Z,4.80
2018-03-26T09:46:34.922Z,4.90
2018-03-26T09:49:03.299Z,4.90
2018-03-26T09:51:31.464Z,5.00
2018-03-26T09:53:59.603Z,5.20
2018-03-26T09:56:28.504Z,5.10
2018-03-26T09:58:57.421Z,5.20
2018-03-26T10:01:25.566Z,5.20
2018-03-26T10:03:54.088Z,5.20
2018-03-26T10:06:22.204Z,5.40
2018-03-26T10:08:51.118Z,5.50
2018-03-26T10:11:19.257Z,5.50
2018-03-26T10:13:47.394Z,5.50
2018-03-26T10:16:15.524Z,5.50
2018-03-26T10:18:44.434Z,5.50
2018-03-26T10:21:12.562Z,5.50
2018-03-26T10:23:40.710Z,5.30
2018-03-26T10:26:09.607Z,5.10
2018-03-26T10:28:37.752Z,5.10
2018-03-26T10:31:05.878Z,4.90
2018-03-26T10:33:34.068Z,4.90
2018-03-26T10:36:02.206Z,5.10
2018-03-26T10:38:31.127Z,5.20
2018-03-26T10:40:59.275Z,5.20
2018-03-26T10:43:27.484Z,5.30
2018-03-26T10:45:55.755Z,5.60
2018-03-26T10:48:23.886Z,5.60
2018-03-26T10:50:52.038Z,5.60
2018-03-26T10:53:20.166Z,5.50
2018-03-26T10:55:48.332Z,5.50
2018-03-26T10:58:16.467Z,5.40
2018-03-26T11:00:44.623Z,5.30
2018-03-26T11:03:12.749Z,5.50
2018-03-26T11:05:40.945Z,5.70
2018-03-26T11:08:09.030Z,6.10
2018-03-26T11:10:37.176Z,6.30
2018-03-26T11:13:05.463Z,6.50
2018-03-26T11:15:33.607Z,6.60
2018-03-26T11:18:01.732Z,6.70
2018-03-26T11:20:29.896Z,6.70
2018-03-26T11:22:58.813Z,6.70
2018-03-26T11:25:26.955Z,6.40
2018-03-26T11:27:55.191Z,6.50
2018-03-26T11:30:23.330Z,6.70
2018-03-26T11:32:52.242Z,6.10
2018-03-26T11:35:20.389Z,6.00
2018-03-26T11:37:48.532Z,5.90
2018-03-26T11:40:16.659Z,5.80
2018-03-26T11:42:45.562Z,5.70
2018-03-26T11:45:13.700Z,5.70
2018-03-26T11:47:42.614Z,5.60
2018-03-26T11:50:10.747Z,5.60
2018-03-26T11:52:38.890Z,5.50
2018-03-26T11:55:07.026Z,5.50
2018-03-26T11:57:35.178Z,5.80
2018-03-26T12:00:03.341Z,5.80
2018-03-26T12:02:31.482Z,5.80
2018-03-26T12:04:59.635Z,5.60
2018-03-26T12:07:27.783Z,5.70
2018-03-26T12:09:55.914Z,6.00
2018-03-26T12:12:24.065Z,6.10
2018-03-26T12:14:52.260Z,6.20
2018-03-26T12:17:21.910Z,6.10
2018-03-26T12:20:01.886Z,6.10
2018-03-26T12:22:30.827Z,6.10
2018-03-26T12:25:05.170Z,6.30
2018-03-26T12:27:33.339Z,6.20
2018-03-26T12:30:09.034Z,6.30
2018-03-26T12:32:37.189Z,6.40
2018-03-26T12:35:17.010Z,6.50
2018-03-26T12:37:45.166Z,6.60
2018-03-26T12:53:41.511Z,7.10
2018-03-26T12:56:09.650Z,7.40
2018-03-26T12:58:50.306Z,7.50
2018-03-26T13:01:30.175Z,7.50
2018-03-26T13:03:58.382Z,7.60
2018-03-26T13:06:26.548Z,7.90
2018-03-26T13:08:55.426Z,8.10
2018-03-26T13:11:23.577Z,8.00
2018-03-26T13:13:51.851Z,7.80
2018-03-26T13:16:20.061Z,7.80
2018-03-26T13:18:48.200Z,7.80
2018-03-26T13:21:16.360Z,7.90
2018-03-26T13:23:44.507Z,8.10
2018-03-26T13:26:12.667Z,8.30
2018-03-26T13:28:40.797Z,8.40
2018-03-26T13:31:08.956Z,8.70
2018-03-26T13:33:37.097Z,8.60
2018-03-26T13:36:06.383Z,9.50
2018-03-26T13:38:34.503Z,9.60
2018-03-26T13:41:02.652Z,9.60
2018-03-26T13:43:30.825Z,9.80
2018-03-26T13:45:58.955Z,10.60
2018-03-26T13:48:27.102Z,10.20
2018-03-26T13:50:55.247Z,10.90
2018-03-26T13:53:23.422Z,11.00
2018-03-26T13:55:51.567Z,10.00
2018-03-26T13:58:19.713Z,9.60
2018-03-26T14:00:47.890Z,9.10
2018-03-26T14:03:16.048Z,8.70
2018-03-26T14:05:44.260Z,8.50
2018-03-26T14:08:24.271Z,8.10
2018-03-26T14:24:19.913Z,7.40
2018-03-26T14:26:48.060Z,7.30
2018-03-26T14:29:16.975Z,6.80
2018-03-26T14:31:45.125Z,6.80
2018-03-26T14:34:14.046Z,6.80
2018-03-26T14:36:42.170Z,6.80
2018-03-26T14:39:10.319Z,6.70
2018-03-26T14:41:38.491Z,6.60
2018-03-26T14:44:06.723Z,6.70
2018-03-26T14:46:34.866Z,6.70
2018-03-26T14:49:03.784Z,6.60
2018-03-26T14:51:31.929Z,6.50
2018-03-26T14:54:00.864Z,6.50
2018-03-26T14:56:29.018Z,6.50
2018-03-26T14:58:57.287Z,6.40
2018-03-26T15:01:25.689Z,6.40
2018-03-26T15:03:59.379Z,6.30
2018-03-26T15:06:27.530Z,6.30
2018-03-26T15:08:55.668Z,6.20
2018-03-26T15:11:23.819Z,6.30
2018-03-26T15:13:52.331Z,6.20
2018-03-26T15:16:20.642Z,6.10
2018-03-26T15:18:48.773Z,6.10
2018-03-26T15:21:16.918Z,6.30
2018-03-26T15:23:45.047Z,6.20
2018-03-26T15:26:13.209Z,6.20
2018-03-26T15:28:41.388Z,6.30
2018-03-26T15:31:10.290Z,6.20
2018-03-26T15:33:38.425Z,6.10
2018-03-26T15:36:06.565Z,6.10
2018-03-26T15:38:34.693Z,6.20
2018-03-26T15:41:03.183Z,5.90
2018-03-26T15:43:31.319Z,5.80
2018-03-26T15:45:59.454Z,5.70
2018-03-26T15:48:27.595Z,5.70
2018-03-26T15:50:55.743Z,5.70
2018-03-26T15:53:24.640Z,5.60
2018-03-26T15:55:53.566Z,5.60
2018-03-26T15:58:21.702Z,5.60
2018-03-26T16:00:50.602Z,5.50
2018-03-26T16:03:24.355Z,5.50
2018-03-26T16:05:52.479Z,5.50
2018-03-26T16:08:20.626Z,5.70
2018-03-26T16:10:49.528Z,5.70
2018-03-26T16:13:18.440Z,5.70
2018-03-26T16:15:46.607Z,5.60
2018-03-26T16:18:14.751Z,5.60
2018-03-26T16:20:43.645Z,5.90
2018-03-26T16:23:12.570Z,5.70
2018-03-26T16:25:40.702Z,5.80
2018-03-26T16:28:09.625Z,5.70
2018-03-26T16:30:37.751Z,5.70
2018-03-26T16:33:06.254Z,5.70
2018-03-26T16:35:35.158Z,5.50
2018-03-26T16:38:03.290Z,5.50
2018-03-26T16:40:32.208Z,5.60
2018-03-26T16:43:05.281Z,5.60
2018-03-26T16:45:34.176Z,5.40
2018-03-26T16:48:03.077Z,5.40
2018-03-26T16:50:31.227Z,5.40
2018-03-26T16:52:59.530Z,5.50
2018-03-26T16:55:27.686Z,5.60
2018-03-26T16:57:56.574Z,5.50
2018-03-26T17:00:24.722Z,5.50
2018-03-26T17:02:52.879Z,5.50
2018-03-26T17:05:21.017Z,5.40
2018-03-26T17:07:49.143Z,5.40
2018-03-26T17:10:18.063Z,5.40
2018-03-26T17:12:46.489Z,5.40
2018-03-26T17:15:14.848Z,5.40
2018-03-26T17:17:42.984Z,5.40
2018-03-26T17:20:11.133Z,5.40
2018-03-26T17:22:39.271Z,5.30
2018-03-26T17:25:07.415Z,5.30
2018-03-26T17:27:35.610Z,5.30
2018-03-26T17:30:04.492Z,5.20
2018-03-26T17:32:32.614Z,5.20
2018-03-26T17:35:00.770Z,5.20
2018-03-26T17:37:28.908Z,5.20
2018-03-26T17:39:57.059Z,5.20
2018-03-26T17:42:25.199Z,5.10
2018-03-26T17:44:54.100Z,5.10
2018-03-26T17:47:22.259Z,5.10
2018-03-26T17:49:51.147Z,5.20
2018-03-26T17:52:20.054Z,5.10
2018-03-26T17:54:48.200Z,5.10
2018-03-26T17:57:16.361Z,5.10
2018-03-26T17:59:44.506Z,5.10
2018-03-26T18:02:12.667Z,5.10
2018-03-26T18:04:40.796Z,5.10
2018-03-26T18:07:09.706Z,5.10
2018-03-26T18:09:37.843Z,5.10
2018-03-26T18:12:05.986Z,5.10
2018-03-26T18:14:34.107Z,5.20
2018-03-26T18:17:03.055Z,5.10
2018-03-26T18:19:31.171Z,5.10
2018-03-26T18:22:00.154Z,5.20
2018-03-26T18:24:29.053Z,5.10
2018-03-26T18:26:57.963Z,5.10
2018-03-26T18:29:26.096Z,5.10
2018-03-26T18:31:55.010Z,5.10
2018-03-26T18:34:23.168Z,5.10
2018-03-26T18:36:52.058Z,5.00
2018-03-26T18:39:20.971Z,5.10
2018-03-26T18:41:49.116Z,5.10
2018-03-26T18:44:22.505Z,5.00
2018-03-26T18:46:53.173Z,4.90
2018-03-26T18:49:21.329Z,5.00
2018-03-26T18:51:56.468Z,5.10
2018-03-26T18:54:26.442Z,5.10
2018-03-26T18:56:55.258Z,5.20
2018-03-26T18:59:26.230Z,5.10
2018-03-26T19:01:54.648Z,5.00
2018-03-26T19:04:24.884Z,5.00
2018-03-26T19:06:53.006Z,4.90
2018-03-26T19:09:26.854Z,4.80
2018-03-26T19:11:57.843Z,4.90
2018-03-26T19:14:27.266Z,4.80
2018-03-26T19:16:56.544Z,4.80
2018-03-26T19:19:27.338Z,4.70
2018-03-26T19:21:57.743Z,4.70
2018-03-26T19:24:29.179Z,4.70
2018-03-26T19:26:59.019Z,4.70
2018-03-26T19:29:27.914Z,4.60
2018-03-26T19:31:56.390Z,4.60
2018-03-26T19:34:27.775Z,4.50
2018-03-26T19:36:58.742Z,4.50
2018-03-26T19:39:26.890Z,4.50
2018-03-26T19:41:57.047Z,4.50
2018-03-26T19:44:30.750Z,4.50
2018-03-26T19:46:59.639Z,4.50
2018-03-26T19:49:29.810Z,4.60
2018-03-26T19:52:02.479Z,4.50
2018-03-26T19:54:32.950Z,4.40
2018-03-26T19:57:03.411Z,4.40
2018-03-26T19:59:33.383Z,4.30
2018-03-26T20:02:07.256Z,4.40
2018-03-26T20:04:36.674Z,4.40
2018-03-26T20:07:07.462Z,4.50
2018-03-26T20:09:39.659Z,4.50
2018-03-26T20:12:09.526Z,4.50
2018-03-26T20:14:39.538Z,4.50
2018-03-26T20:17:08.276Z,4.50
2018-03-26T20:19:36.438Z,4.40
2018-03-26T20:22:04.791Z,4.30
2018-03-26T20:24:32.947Z,4.30
2018-03-26T20:27:01.110Z,4.30
2018-03-26T20:29:29.263Z,4.30
2018-03-26T20:31:57.414Z,4.40
2018-03-26T20:34:25.609Z,4.30
2018-03-26T20:36:53.731Z,4.10
2018-03-26T20:39:21.860Z,4.10
2018-03-26T20:41:50.008Z,4.10
2018-03-26T20:44:18.901Z,4.10
2018-03-26T20:46:47.062Z,4.10
2018-03-26T20:49:15.202Z,4.00
2018-03-26T20:51:43.470Z,4.00
2018-03-26T20:54:11.610Z,4.00
2018-03-26T20:56:39.784Z,3.90
2018-03-26T20:59:08.807Z,3.60
2018-03-26T21:01:37.005Z,3.60
2018-03-26T21:04:05.142Z,3.70
2018-03-26T21:06:33.322Z,3.60
2018-03-26T21:09:01.547Z,3.50
2018-03-26T21:11:29.718Z,3.70
2018-03-26T21:13:57.869Z,3.30
2018-03-26T21:16:25.999Z,3.30
2018-03-26T21:18:59.329Z,3.30
2018-03-26T21:21:28.680Z,3.40
2018-03-26T21:23:56.884Z,3.40
2018-03-26T21:26:25.033Z,3.40
2018-03-26T21:28:53.202Z,3.50
2018-03-26T21:31:21.385Z,3.50
2018-03-26T21:33:49.570Z,3.60
2018-03-26T21:36:17.876Z,3.70
2018-03-26T21:38:46.050Z,3.60
2018-03-26T21:41:14.201Z,3.70
2018-03-26T21:43:42.415Z,3.70
2018-03-26T21:46:10.785Z,3.70
2018-03-26T21:48:39.748Z,3.90
2018-03-26T21:51:08.653Z,4.00
2018-03-26T21:53:36.822Z,4.00
2018-03-26T21:56:04.984Z,4.00
2018-03-26T21:58:33.133Z,4.10
2018-03-26T22:01:01.283Z,4.00
2018-03-26T22:03:30.199Z,3.90
2018-03-26T22:05:58.349Z,3.90
2018-03-26T22:08:27.891Z,4.00
2018-03-26T22:10:56.151Z,3.80
2018-03-26T22:13:24.294Z,3.70
2018-03-26T22:15:52.450Z,3.70
2018-03-26T22:18:21.365Z,3.60
2018-03-26T22:20:49.524Z,3.60
2018-03-26T22:23:17.674Z,3.60
2018-03-26T22:25:45.824Z,3.60
2018-03-26T22:28:18.683Z,3.70
2018-03-26T22:30:48.446Z,3.70
2018-03-26T22:33:16.576Z,3.60
2018-03-26T22:35:44.782Z,3.50
2018-03-26T22:38:13.694Z,3.60
2018-03-26T22:40:42.679Z,3.50
2018-03-26T22:43:10.825Z,3.50
2018-03-26T22:45:39.094Z,3.60
2018-03-26T22:48:08.040Z,3.40
2018-03-26T22:50:36.219Z,3.40
2018-03-26T22:53:04.372Z,3.40
2018-03-26T22:55:32.523Z,3.50
2018-03-26T22:58:01.423Z,3.40
2018-03-26T23:00:29.623Z,3.40
2018-03-26T23:02:57.793Z,3.50
2018-03-26T23:05:25.944Z,3.60
2018-03-26T23:07:54.127Z,3.80
2018-03-26T23:10:22.378Z,4.00
2018-03-26T23:12:51.311Z,4.00
2018-03-26T23:15:19.472Z,4.00
2018-03-26T23:17:47.612Z,4.00
2018-03-26T23:20:16.533Z,4.00
2018-03-26T23:22:48.577Z,4.00
2018-03-26T23:25:17.483Z,3.70
2018-03-26T23:27:45.622Z,3.70
2018-03-26T23:30:13.938Z,3.90
2018-03-26T23:32:42.079Z,3.80
2018-03-26T23:35:10.246Z,3.90
2018-03-26T23:37:38.406Z,3.80
2018-03-26T23:40:06.571Z,3.50
2018-03-26T23:42:34.702Z,3.40
2018-03-26T23:45:02.844Z,3.50
2018-03-26T23:47:31.309Z,3.50
2018-03-26T23:50:00.198Z,3.50
2018-03-26T23:52:28.485Z,3.50
2018-03-26T23:54:56.635Z,3.60
2018-03-26T23:57:25.558Z,3.90
2018-03-26T23:59:53.727Z,3.90
